sensor_id;sensor_type;location;lat;lon;timestamp;P1;durP1;ratioP1;P2;durP2;ratioP2
53285;SDS011;39171;45.550;12.074;2023-05-29T00:03:07;4.80;;;3.63;;
53285;SDS011;39171;45.550;12.074;2023-05-29T00:09:10;5.57;;;4.22;;
53285;SDS011;39171;45.550;12.074;2023-05-29T00:15:11;4.93;;;3.50;;
53285;SDS011;39171;45.550;12.074;2023-05-29T00:21:13;5.03;;;3.70;;
53285;SDS011;39171;45.550;12.074;2023-05-29T00:27:14;4.50;;;3.50;;
53285;SDS011;39171;45.550;12.074;2023-05-29T00:33:16;5.22;;;4.10;;
53285;SDS011;39171;45.550;12.074;2023-05-29T00:39:19;5.78;;;3.95;;
53285;SDS011;39171;45.550;12.074;2023-05-29T00:45:22;5.20;;;3.72;;
53285;SDS011;39171;45.550;12.074;2023-05-29T00:51:24;7.20;;;3.60;;
53285;SDS011;39171;45.550;12.074;2023-05-29T00:57:27;5.07;;;3.70;;
53285;SDS011;39171;45.550;12.074;2023-05-29T01:03:29;5.38;;;4.05;;
53285;SDS011;39171;45.550;12.074;2023-05-29T01:09:32;4.68;;;3.60;;
53285;SDS011;39171;45.550;12.074;2023-05-29T01:15:50;4.93;;;4.10;;
53285;SDS011;39171;45.550;12.074;2023-05-29T01:28:24;5.50;;;3.80;;
53285;SDS011;39171;45.550;12.074;2023-05-29T01:34:28;4.20;;;3.30;;
53285;SDS011;39171;45.550;12.074;2023-05-29T01:40:29;5.38;;;4.15;;
53285;SDS011;39171;45.550;12.074;2023-05-29T01:46:31;4.68;;;3.80;;
53285;SDS011;39171;45.550;12.074;2023-05-29T01:52:32;4.78;;;3.83;;
53285;SDS011;39171;45.550;12.074;2023-05-29T01:58:37;4.60;;;3.97;;
53285;SDS011;39171;45.550;12.074;2023-05-29T02:04:40;4.72;;;3.80;;
53285;SDS011;39171;45.550;12.074;2023-05-29T02:10:41;4.55;;;3.72;;
53285;SDS011;39171;45.550;12.074;2023-05-29T02:16:42;4.72;;;3.67;;
53285;SDS011;39171;45.550;12.074;2023-05-29T02:22:45;4.85;;;4.07;;
53285;SDS011;39171;45.550;12.074;2023-05-29T02:28:47;5.20;;;3.67;;
53285;SDS011;39171;45.550;12.074;2023-05-29T02:34:48;5.75;;;3.90;;
53285;SDS011;39171;45.550;12.074;2023-05-29T02:40:50;5.30;;;3.88;;
53285;SDS011;39171;45.550;12.074;2023-05-29T02:46:52;5.40;;;4.15;;
53285;SDS011;39171;45.550;12.074;2023-05-29T02:52:53;5.10;;;4.00;;
53285;SDS011;39171;45.550;12.074;2023-05-29T02:58:55;5.03;;;3.95;;
53285;SDS011;39171;45.550;12.074;2023-05-29T03:04:56;5.53;;;4.32;;
53285;SDS011;39171;45.550;12.074;2023-05-29T03:10:57;4.88;;;3.80;;
53285;SDS011;39171;45.550;12.074;2023-05-29T03:16:59;4.95;;;4.03;;
53285;SDS011;39171;45.550;12.074;2023-05-29T03:23:01;5.25;;;3.30;;
53285;SDS011;39171;45.550;12.074;2023-05-29T03:29:04;4.70;;;4.07;;
53285;SDS011;39171;45.550;12.074;2023-05-29T03:35:07;3.92;;;3.38;;
53285;SDS011;39171;45.550;12.074;2023-05-29T03:41:11;5.00;;;4.05;;
53285;SDS011;39171;45.550;12.074;2023-05-29T03:47:13;4.78;;;3.97;;
53285;SDS011;39171;45.550;12.074;2023-05-29T03:53:14;5.57;;;3.58;;
53285;SDS011;39171;45.550;12.074;2023-05-29T03:59:16;4.63;;;3.60;;
53285;SDS011;39171;45.550;12.074;2023-05-29T04:05:17;4.68;;;3.63;;
53285;SDS011;39171;45.550;12.074;2023-05-29T04:11:20;4.50;;;3.75;;
53285;SDS011;39171;45.550;12.074;2023-05-29T04:17:23;5.28;;;3.70;;
53285;SDS011;39171;45.550;12.074;2023-05-29T04:23:24;4.40;;;3.70;;
53285;SDS011;39171;45.550;12.074;2023-05-29T04:29:26;4.38;;;3.28;;
53285;SDS011;39171;45.550;12.074;2023-05-29T04:35:27;4.93;;;3.60;;
53285;SDS011;39171;45.550;12.074;2023-05-29T04:41:36;5.35;;;3.28;;
53285;SDS011;39171;45.550;12.074;2023-05-29T04:47:41;4.68;;;3.72;;
53285;SDS011;39171;45.550;12.074;2023-05-29T04:53:47;4.15;;;3.67;;
53285;SDS011;39171;45.550;12.074;2023-05-29T04:59:51;4.07;;;3.42;;
53285;SDS011;39171;45.550;12.074;2023-05-29T05:05:53;4.07;;;3.15;;
53285;SDS011;39171;45.550;12.074;2023-05-29T05:11:55;4.57;;;3.63;;
53285;SDS011;39171;45.550;12.074;2023-05-29T05:17:58;3.83;;;3.42;;
53285;SDS011;39171;45.550;12.074;2023-05-29T05:24:03;3.90;;;3.20;;
53285;SDS011;39171;45.550;12.074;2023-05-29T05:30:05;4.22;;;3.22;;
53285;SDS011;39171;45.550;12.074;2023-05-29T05:36:07;3.83;;;3.13;;
53285;SDS011;39171;45.550;12.074;2023-05-29T05:42:13;4.15;;;3.15;;
53285;SDS011;39171;45.550;12.074;2023-05-29T05:48:26;4.10;;;2.72;;
53285;SDS011;39171;45.550;12.074;2023-05-29T05:54:28;3.40;;;3.00;;
53285;SDS011;39171;45.550;12.074;2023-05-29T06:00:30;3.90;;;2.80;;
53285;SDS011;39171;45.550;12.074;2023-05-29T06:06:31;3.33;;;2.63;;
53285;SDS011;39171;45.550;12.074;2023-05-29T06:12:33;3.20;;;2.63;;
53285;SDS011;39171;45.550;12.074;2023-05-29T06:18:45;3.20;;;2.53;;
53285;SDS011;39171;45.550;12.074;2023-05-29T06:24:47;3.42;;;2.30;;
53285;SDS011;39171;45.550;12.074;2023-05-29T06:30:48;2.47;;;2.17;;
53285;SDS011;39171;45.550;12.074;2023-05-29T06:36:51;3.72;;;2.83;;
53285;SDS011;39171;45.550;12.074;2023-05-29T06:42:53;3.10;;;2.47;;
53285;SDS011;39171;45.550;12.074;2023-05-29T06:49:09;3.15;;;2.30;;
53285;SDS011;39171;45.550;12.074;2023-05-29T06:55:11;3.17;;;2.65;;
53285;SDS011;39171;45.550;12.074;2023-05-29T07:01:12;3.08;;;2.30;;
53285;SDS011;39171;45.550;12.074;2023-05-29T07:07:22;2.80;;;2.40;;
53285;SDS011;39171;45.550;12.074;2023-05-29T07:13:24;2.80;;;2.35;;
53285;SDS011;39171;45.550;12.074;2023-05-29T07:19:29;2.78;;;2.10;;
53285;SDS011;39171;45.550;12.074;2023-05-29T07:25:33;2.70;;;1.80;;
53285;SDS011;39171;45.550;12.074;2023-05-29T07:31:36;3.22;;;2.33;;
53285;SDS011;39171;45.550;12.074;2023-05-29T07:37:38;2.90;;;2.10;;
53285;SDS011;39171;45.550;12.074;2023-05-29T07:43:40;3.17;;;2.30;;
53285;SDS011;39171;45.550;12.074;2023-05-29T07:49:43;2.97;;;2.15;;
53285;SDS011;39171;45.550;12.074;2023-05-29T07:55:45;3.83;;;2.35;;
53285;SDS011;39171;45.550;12.074;2023-05-29T08:01:46;3.63;;;2.70;;
53285;SDS011;39171;45.550;12.074;2023-05-29T08:08:07;3.33;;;2.35;;
53285;SDS011;39171;45.550;12.074;2023-05-29T08:14:10;3.55;;;2.53;;
53285;SDS011;39171;45.550;12.074;2023-05-29T08:20:14;3.20;;;2.40;;
53285;SDS011;39171;45.550;12.074;2023-05-29T08:26:15;2.53;;;1.83;;
53285;SDS011;39171;45.550;12.074;2023-05-29T08:32:17;3.58;;;2.13;;
53285;SDS011;39171;45.550;12.074;2023-05-29T08:38:18;3.65;;;2.53;;
53285;SDS011;39171;45.550;12.074;2023-05-29T08:44:22;4.78;;;2.90;;
53285;SDS011;39171;45.550;12.074;2023-05-29T08:50:23;4.20;;;2.88;;
53285;SDS011;39171;45.550;12.074;2023-05-29T08:56:26;4.22;;;2.60;;
53285;SDS011;39171;45.550;12.074;2023-05-29T09:02:28;3.40;;;2.67;;
53285;SDS011;39171;45.550;12.074;2023-05-29T09:08:30;4.03;;;2.92;;
53285;SDS011;39171;45.550;12.074;2023-05-29T09:20:36;4.85;;;3.30;;
53285;SDS011;39171;45.550;12.074;2023-05-29T09:26:38;5.68;;;3.35;;
53285;SDS011;39171;45.550;12.074;2023-05-29T09:32:39;3.88;;;2.85;;
53285;SDS011;39171;45.550;12.074;2023-05-29T09:38:45;3.75;;;2.90;;
53285;SDS011;39171;45.550;12.074;2023-05-29T09:44:50;4.80;;;3.45;;
53285;SDS011;39171;45.550;12.074;2023-05-29T09:50:54;3.95;;;2.92;;
53285;SDS011;39171;45.550;12.074;2023-05-29T09:56:58;4.10;;;2.97;;
53285;SDS011;39171;45.550;12.074;2023-05-29T10:03:02;5.40;;;3.45;;
53285;SDS011;39171;45.550;12.074;2023-05-29T10:09:08;4.28;;;3.20;;
53285;SDS011;39171;45.550;12.074;2023-05-29T10:15:11;6.85;;;3.63;;
53285;SDS011;39171;45.550;12.074;2023-05-29T10:21:14;5.40;;;3.25;;
53285;SDS011;39171;45.550;12.074;2023-05-29T10:27:17;5.80;;;3.95;;
53285;SDS011;39171;45.550;12.074;2023-05-29T10:33:31;4.85;;;3.58;;
53285;SDS011;39171;45.550;12.074;2023-05-29T10:39:53;4.25;;;3.33;;
53285;SDS011;39171;45.550;12.074;2023-05-29T10:45:54;5.57;;;3.88;;
53285;SDS011;39171;45.550;12.074;2023-05-29T10:51:56;5.90;;;4.00;;
53285;SDS011;39171;45.550;12.074;2023-05-29T10:58:04;5.25;;;3.88;;
53285;SDS011;39171;45.550;12.074;2023-05-29T11:16:56;4.82;;;3.53;;
53285;SDS011;39171;45.550;12.074;2023-05-29T11:29:00;5.85;;;4.18;;
53285;SDS011;39171;45.550;12.074;2023-05-29T11:35:08;6.35;;;4.22;;
53285;SDS011;39171;45.550;12.074;2023-05-29T11:41:10;4.95;;;3.20;;
53285;SDS011;39171;45.550;12.074;2023-05-29T11:47:12;5.50;;;3.92;;
53285;SDS011;39171;45.550;12.074;2023-05-29T11:53:15;5.30;;;4.28;;
53285;SDS011;39171;45.550;12.074;2023-05-29T11:59:17;8.52;;;4.57;;
53285;SDS011;39171;45.550;12.074;2023-05-29T12:05:18;8.35;;;4.47;;
53285;SDS011;39171;45.550;12.074;2023-05-29T12:11:23;6.60;;;4.15;;
53285;SDS011;39171;45.550;12.074;2023-05-29T12:17:24;5.63;;;3.88;;
53285;SDS011;39171;45.550;12.074;2023-05-29T12:23:28;8.18;;;4.75;;
53285;SDS011;39171;45.550;12.074;2023-05-29T12:29:30;6.13;;;3.78;;
53285;SDS011;39171;45.550;12.074;2023-05-29T12:35:34;7.00;;;4.57;;
53285;SDS011;39171;45.550;12.074;2023-05-29T12:41:36;6.03;;;4.15;;
53285;SDS011;39171;45.550;12.074;2023-05-29T12:47:55;6.28;;;4.25;;
53285;SDS011;39171;45.550;12.074;2023-05-29T12:53:57;5.97;;;4.10;;
53285;SDS011;39171;45.550;12.074;2023-05-29T12:59:59;6.03;;;4.20;;
53285;SDS011;39171;45.550;12.074;2023-05-29T13:06:01;5.32;;;3.50;;
53285;SDS011;39171;45.550;12.074;2023-05-29T13:12:02;5.00;;;3.42;;
53285;SDS011;39171;45.550;12.074;2023-05-29T13:18:04;7.43;;;4.50;;
53285;SDS011;39171;45.550;12.074;2023-05-29T13:24:06;5.88;;;4.20;;
53285;SDS011;39171;45.550;12.074;2023-05-29T13:30:08;5.40;;;3.85;;
53285;SDS011;39171;45.550;12.074;2023-05-29T13:36:10;6.45;;;4.30;;
53285;SDS011;39171;45.550;12.074;2023-05-29T13:42:11;6.88;;;4.75;;
53285;SDS011;39171;45.550;12.074;2023-05-29T13:48:13;6.47;;;4.53;;
53285;SDS011;39171;45.550;12.074;2023-05-29T13:54:15;7.60;;;4.50;;
53285;SDS011;39171;45.550;12.074;2023-05-29T14:00:16;6.65;;;4.85;;
53285;SDS011;39171;45.550;12.074;2023-05-29T14:06:18;7.10;;;4.32;;
53285;SDS011;39171;45.550;12.074;2023-05-29T14:12:19;7.32;;;4.72;;
53285;SDS011;39171;45.550;12.074;2023-05-29T14:18:21;8.43;;;5.38;;
53285;SDS011;39171;45.550;12.074;2023-05-29T14:24:22;7.00;;;4.43;;
53285;SDS011;39171;45.550;12.074;2023-05-29T14:30:25;6.30;;;4.53;;
53285;SDS011;39171;45.550;12.074;2023-05-29T14:36:26;6.97;;;4.68;;
53285;SDS011;39171;45.550;12.074;2023-05-29T14:42:28;9.45;;;5.70;;
53285;SDS011;39171;45.550;12.074;2023-05-29T14:48:29;7.82;;;5.45;;
53285;SDS011;39171;45.550;12.074;2023-05-29T14:54:31;7.70;;;5.13;;
53285;SDS011;39171;45.550;12.074;2023-05-29T15:00:32;5.93;;;4.22;;
53285;SDS011;39171;45.550;12.074;2023-05-29T15:06:34;6.78;;;4.18;;
53285;SDS011;39171;45.550;12.074;2023-05-29T15:12:36;7.30;;;4.88;;
53285;SDS011;39171;45.550;12.074;2023-05-29T15:18:37;7.18;;;4.30;;
53285;SDS011;39171;45.550;12.074;2023-05-29T15:24:38;4.95;;;3.53;;
53285;SDS011;39171;45.550;12.074;2023-05-29T15:30:40;7.55;;;4.60;;
53285;SDS011;39171;45.550;12.074;2023-05-29T15:36:41;8.18;;;4.75;;
53285;SDS011;39171;45.550;12.074;2023-05-29T15:42:43;8.48;;;5.28;;
53285;SDS011;39171;45.550;12.074;2023-05-29T15:48:45;7.28;;;4.47;;
53285;SDS011;39171;45.550;12.074;2023-05-29T15:54:47;7.40;;;4.25;;
53285;SDS011;39171;45.550;12.074;2023-05-29T16:00:48;5.85;;;4.25;;
53285;SDS011;39171;45.550;12.074;2023-05-29T16:06:50;8.38;;;4.80;;
53285;SDS011;39171;45.550;12.074;2023-05-29T16:12:51;6.20;;;4.55;;
53285;SDS011;39171;45.550;12.074;2023-05-29T16:18:54;7.65;;;4.38;;
53285;SDS011;39171;45.550;12.074;2023-05-29T16:24:55;5.15;;;3.90;;
53285;SDS011;39171;45.550;12.074;2023-05-29T16:30:57;4.97;;;3.58;;
53285;SDS011;39171;45.550;12.074;2023-05-29T16:36:58;5.65;;;3.78;;
53285;SDS011;39171;45.550;12.074;2023-05-29T16:42:59;4.90;;;3.33;;
53285;SDS011;39171;45.550;12.074;2023-05-29T16:49:06;4.72;;;3.13;;
53285;SDS011;39171;45.550;12.074;2023-05-29T16:55:07;4.68;;;3.45;;
53285;SDS011;39171;45.550;12.074;2023-05-29T17:01:09;4.32;;;3.20;;
53285;SDS011;39171;45.550;12.074;2023-05-29T17:07:10;4.90;;;3.20;;
53285;SDS011;39171;45.550;12.074;2023-05-29T17:13:11;3.88;;;2.85;;
53285;SDS011;39171;45.550;12.074;2023-05-29T17:19:13;5.35;;;3.13;;
53285;SDS011;39171;45.550;12.074;2023-05-29T17:25:15;4.15;;;3.17;;
53285;SDS011;39171;45.550;12.074;2023-05-29T17:31:17;5.43;;;3.35;;
53285;SDS011;39171;45.550;12.074;2023-05-29T17:37:18;3.30;;;2.47;;
53285;SDS011;39171;45.550;12.074;2023-05-29T17:43:20;3.70;;;2.67;;
53285;SDS011;39171;45.550;12.074;2023-05-29T17:49:23;3.65;;;2.38;;
53285;SDS011;39171;45.550;12.074;2023-05-29T17:55:24;3.78;;;2.92;;
53285;SDS011;39171;45.550;12.074;2023-05-29T18:01:26;4.07;;;2.65;;
53285;SDS011;39171;45.550;12.074;2023-05-29T18:07:27;3.60;;;2.50;;
53285;SDS011;39171;45.550;12.074;2023-05-29T18:13:28;4.40;;;2.90;;
53285;SDS011;39171;45.550;12.074;2023-05-29T18:19:29;3.35;;;2.30;;
53285;SDS011;39171;45.550;12.074;2023-05-29T18:25:31;3.33;;;2.40;;
53285;SDS011;39171;45.550;12.074;2023-05-29T18:31:34;3.15;;;2.13;;
53285;SDS011;39171;45.550;12.074;2023-05-29T18:37:35;3.55;;;2.20;;
53285;SDS011;39171;45.550;12.074;2023-05-29T18:43:37;3.35;;;2.20;;
53285;SDS011;39171;45.550;12.074;2023-05-29T18:49:39;3.88;;;2.10;;
53285;SDS011;39171;45.550;12.074;2023-05-29T18:55:41;3.67;;;2.20;;
53285;SDS011;39171;45.550;12.074;2023-05-29T19:01:42;2.78;;;1.85;;
53285;SDS011;39171;45.550;12.074;2023-05-29T19:07:44;3.63;;;2.38;;
53285;SDS011;39171;45.550;12.074;2023-05-29T19:13:46;2.80;;;1.80;;
53285;SDS011;39171;45.550;12.074;2023-05-29T19:19:48;2.28;;;1.70;;
53285;SDS011;39171;45.550;12.074;2023-05-29T19:25:49;2.92;;;1.98;;
53285;SDS011;39171;45.550;12.074;2023-05-29T19:31:52;2.72;;;2.03;;
53285;SDS011;39171;45.550;12.074;2023-05-29T19:37:53;2.20;;;1.50;;
53285;SDS011;39171;45.550;12.074;2023-05-29T19:43:55;1.95;;;1.30;;
53285;SDS011;39171;45.550;12.074;2023-05-29T19:49:56;1.90;;;1.40;;
53285;SDS011;39171;45.550;12.074;2023-05-29T19:56:03;1.63;;;1.20;;
53285;SDS011;39171;45.550;12.074;2023-05-29T20:02:05;1.80;;;1.20;;
53285;SDS011;39171;45.550;12.074;2023-05-29T20:08:07;1.38;;;0.85;;
53285;SDS011;39171;45.550;12.074;2023-05-29T20:14:08;1.73;;;0.93;;
53285;SDS011;39171;45.550;12.074;2023-05-29T20:20:10;1.40;;;1.00;;
53285;SDS011;39171;45.550;12.074;2023-05-29T20:26:11;1.08;;;0.82;;
53285;SDS011;39171;45.550;12.074;2023-05-29T20:32:13;1.13;;;0.80;;
53285;SDS011;39171;45.550;12.074;2023-05-29T20:38:14;1.48;;;0.90;;
53285;SDS011;39171;45.550;12.074;2023-05-29T20:44:16;1.75;;;1.10;;
53285;SDS011;39171;45.550;12.074;2023-05-29T20:50:17;1.50;;;0.90;;
53285;SDS011;39171;45.550;12.074;2023-05-29T20:56:19;1.00;;;0.75;;
53285;SDS011;39171;45.550;12.074;2023-05-29T21:02:22;1.30;;;0.90;;
53285;SDS011;39171;45.550;12.074;2023-05-29T21:08:23;1.30;;;0.98;;
53285;SDS011;39171;45.550;12.074;2023-05-29T21:14:25;1.17;;;0.80;;
53285;SDS011;39171;45.550;12.074;2023-05-29T21:20:26;1.42;;;0.75;;
53285;SDS011;39171;45.550;12.074;2023-05-29T21:26:28;1.00;;;0.70;;
53285;SDS011;39171;45.550;12.074;2023-05-29T21:32:29;1.33;;;0.85;;
53285;SDS011;39171;45.550;12.074;2023-05-29T21:38:31;1.05;;;0.70;;
53285;SDS011;39171;45.550;12.074;2023-05-29T21:44:32;0.73;;;0.55;;
53285;SDS011;39171;45.550;12.074;2023-05-29T21:50:33;1.55;;;1.17;;
53285;SDS011;39171;45.550;12.074;2023-05-29T21:56:35;1.50;;;0.88;;
53285;SDS011;39171;45.550;12.074;2023-05-29T22:02:38;1.05;;;0.80;;
53285;SDS011;39171;45.550;12.074;2023-05-29T22:08:46;1.20;;;0.93;;
53285;SDS011;39171;45.550;12.074;2023-05-29T22:14:48;1.40;;;0.80;;
53285;SDS011;39171;45.550;12.074;2023-05-29T22:20:49;1.10;;;0.85;;
53285;SDS011;39171;45.550;12.074;2023-05-29T22:26:51;1.17;;;0.90;;
53285;SDS011;39171;45.550;12.074;2023-05-29T22:32:53;1.50;;;1.10;;
53285;SDS011;39171;45.550;12.074;2023-05-29T22:38:54;1.60;;;1.00;;
53285;SDS011;39171;45.550;12.074;2023-05-29T22:44:56;1.52;;;1.08;;
53285;SDS011;39171;45.550;12.074;2023-05-29T22:50:57;2.10;;;1.40;;
53285;SDS011;39171;45.550;12.074;2023-05-29T22:56:59;1.85;;;1.20;;
53285;SDS011;39171;45.550;12.074;2023-05-29T23:03:00;1.88;;;1.20;;
53285;SDS011;39171;45.550;12.074;2023-05-29T23:09:03;1.80;;;1.27;;
53285;SDS011;39171;45.550;12.074;2023-05-29T23:15:05;1.98;;;1.27;;
53285;SDS011;39171;45.550;12.074;2023-05-29T23:21:07;2.28;;;1.45;;
53285;SDS011;39171;45.550;12.074;2023-05-29T23:27:08;1.70;;;1.13;;
53285;SDS011;39171;45.550;12.074;2023-05-29T23:33:10;2.33;;;1.50;;
53285;SDS011;39171;45.550;12.074;2023-05-29T23:39:13;2.83;;;2.00;;
53285;SDS011;39171;45.550;12.074;2023-05-29T23:45:14;2.10;;;1.60;;
53285;SDS011;39171;45.550;12.074;2023-05-29T23:51:16;2.63;;;1.83;;
53285;SDS011;39171;45.550;12.074;2023-05-29T23:57:18;2.40;;;1.70;;
